Time;durP1;ratioP1;P1;durP2;ratioP2;P2;SDS_P1;SDS_P2;PMS_P1;PMS_P2;Temp;Humidity;BMP_temperature;BMP_pressure;BME280_temperature;BME280_humidity;BME280_pressure;Samples;Min_cycle;Max_cycle;Signal;HPM_P1;HPM_P2
2022/06/25 00:01:45;;;;;;;1999.90;999.90;;;;;;;19.57;75.58;95202.53;5010023;28;20025;-71
2022/06/25 00:06:55;;;;;;;1999.90;999.90;;;;;;;19.73;75.52;95224.81;5010712;28;20072;-70
2022/06/25 00:09:22;;;;;;;1999.90;999.90;;;;;;;19.55;75.48;95198.63;5008840;28;20049;-71
2022/06/25 00:14:31;;;;;;;1999.90;999.90;;;;;;;19.16;75.48;95137.47;5009741;28;20549;-70
2022/06/25 00:16:56;;;;;;;1999.90;999.90;;;;;;;19.19;75.42;95142.16;5010071;28;20025;-70
2022/06/25 00:19:23;;;;;;;1999.90;999.90;;;;;;;19.56;75.46;95192.88;5008701;28;20066;-70
2022/06/25 00:21:50;;;;;;;1999.90;999.90;;;;;;;19.61;75.27;95202.63;5009619;28;20484;-71
2022/06/25 00:24:16;;;;;;;1999.90;999.90;;;;;;;19.63;75.10;95203.81;5009894;28;20446;-71
2022/06/25 00:26:43;;;;;;;1999.90;999.90;;;;;;;19.57;75.29;95199.81;5010084;28;20075;-71
2022/06/25 00:29:10;;;;;;;1999.90;999.90;;;;;;;19.56;75.27;95198.28;5010067;28;20029;-70
2022/06/25 00:31:36;;;;;;;1999.90;999.90;;;;;;;19.81;75.62;95241.91;5008383;28;20030;-70
2022/06/25 00:34:02;;;;;;;1999.90;999.90;;;;;;;19.68;75.39;95213.53;5009862;28;20034;-70
2022/06/25 00:36:28;;;;;;;1999.90;999.90;;;;;;;19.52;75.21;95197.44;5009819;28;20021;-71
2022/06/25 00:38:53;;;;;;;1999.90;999.90;;;;;;;19.74;75.15;95228.28;5009865;28;20485;-71
2022/06/25 00:41:18;;;;;;;1999.90;999.90;;;;;;;19.55;75.13;95202.13;5009511;28;20030;-71
2022/06/25 00:43:44;;;;;;;1999.90;999.90;;;;;;;19.71;75.34;95221.69;5009750;28;20034;-70
2022/06/25 00:46:09;;;;;;;1999.90;999.90;;;;;;;19.55;75.46;95199.41;5009773;28;20026;-70
2022/06/25 00:48:35;;;;;;;1999.90;999.90;;;;;;;19.54;75.38;95197.06;5010715;28;20062;-71
2022/06/25 00:51:04;;;;;;;1999.90;999.90;;;;;;;19.64;75.40;95218.06;5013352;28;20576;-70
2022/06/25 00:53:34;;;;;;;1999.90;999.90;;;;;;;19.48;75.29;95204.69;5012294;28;20862;-71
2022/06/25 00:56:00;;;;;;;1999.90;999.90;;;;;;;19.55;75.34;95217.50;5012430;28;20091;-71
2022/06/25 00:58:38;;;;;;;1999.90;999.90;;;;;;;19.44;75.20;95198.44;5013577;28;20108;-69
2022/06/25 01:01:05;;;;;;;1999.90;999.90;;;;;;;19.52;75.18;95196.66;5011964;28;20075;-70
2022/06/25 01:03:30;;;;;;;1999.90;999.90;;;;;;;19.55;75.14;95202.13;5013459;28;20049;-71
2022/06/25 01:05:56;;;;;;;1999.90;999.90;;;;;;;19.59;75.11;95211.06;5013564;28;20072;-70
2022/06/25 01:08:22;;;;;;;1999.90;999.90;;;;;;;19.62;75.04;95212.28;5013464;28;20054;-70
2022/06/25 01:10:48;;;;;;;1999.90;999.90;;;;;;;19.53;75.14;95204.38;5011626;28;20018;-70
2022/06/25 01:13:13;;;;;;;1999.90;999.90;;;;;;;19.48;75.25;95188.50;5013213;28;20026;-70
2022/06/25 01:15:38;;;;;;;1999.90;999.90;;;;;;;19.49;75.04;95190.81;5012246;28;20087;-70
2022/06/25 01:18:04;;;;;;;1999.90;999.90;;;;;;;19.41;74.94;95174.88;5011986;28;20026;-70
2022/06/25 01:20:29;;;;;;;1999.90;999.90;;;;;;;19.59;74.86;95197.56;5012884;28;20493;-70
2022/06/25 01:22:57;;;;;;;1999.90;999.90;;;;;;;19.63;74.75;95200.34;5013119;28;20490;-70
2022/06/25 01:25:23;;;;;;;1999.90;999.90;;;;;;;19.62;74.56;95191.47;5013154;28;20037;-71
2022/06/25 01:27:48;;;;;;;1999.90;999.90;;;;;;;19.68;74.60;95203.50;5013218;28;20033;-70
2022/06/25 01:30:15;;;;;;;1999.90;999.90;;;;;;;19.69;74.48;95196.19;5011191;28;20022;-71
2022/06/25 01:32:41;;;;;;;1999.90;999.90;;;;;;;19.53;74.22;95172.00;5012556;28;20025;-70
2022/06/25 01:35:08;;;;;;;1999.90;999.90;;;;;;;19.72;74.27;95198.19;5012999;28;20044;-70
2022/06/25 01:37:34;;;;;;;1999.90;999.90;;;;;;;19.56;74.11;95174.00;5012876;28;20040;-70
2022/06/25 01:40:00;;;;;;;1999.90;999.90;;;;;;;19.76;74.24;95200.91;5012538;28;20022;-70
2022/06/25 01:45:12;;;;;;;1999.90;999.90;;;;;;;19.82;74.12;95205.66;5013006;28;20040;-70
2022/06/25 01:47:38;;;;;;;1999.90;999.90;;;;;;;19.78;74.16;95204.81;5012862;28;20200;-70
2022/06/25 01:50:06;;;;;;;1999.90;999.90;;;;;;;19.57;74.27;95174.75;5012266;28;20036;-71
2022/06/25 01:52:32;;;;;;;1999.90;999.90;;;;;;;19.72;74.07;95204.34;5011029;28;20121;-70
2022/06/25 01:54:58;;;;;;;1999.90;999.90;;;;;;;19.69;74.10;95196.97;5012539;28;20029;-70
2022/06/25 01:57:23;;;;;;;1999.90;999.90;;;;;;;19.78;74.19;95217.53;5011219;28;20030;-70
2022/06/25 01:59:49;;;;;;;1999.90;999.90;;;;;;;19.72;74.07;95203.56;5012035;28;20036;-70
2022/06/25 02:02:14;;;;;;;1999.90;999.90;;;;;;;19.78;74.29;95209.44;5011978;28;20481;-70
2022/06/25 02:04:40;;;;;;;1999.90;999.90;;;;;;;19.47;73.99;95159.97;5012256;28;20029;-70
2022/06/25 02:07:06;;;;;;;1999.90;999.90;;;;;;;19.67;73.86;95193.09;5026658;22;20136;-70
2022/06/25 02:09:31;;;;;;;1999.90;999.90;;;;;;;19.66;73.98;95196.94;5012254;28;20100;-70
2022/06/25 02:11:57;;;;;;;1999.90;999.90;;;;;;;19.76;73.85;95212.53;5011835;28;20034;-70
2022/06/25 02:14:22;;;;;;;1999.90;999.90;;;;;;;19.62;73.48;95201.47;5011993;28;20034;-70
2022/06/25 02:16:48;;;;;;;1999.90;999.90;;;;;;;19.65;74.20;95206.13;5012140;28;20378;-70
2022/06/25 02:19:13;;;;;;;1999.90;999.90;;;;;;;19.65;73.73;95212.31;5011911;28;20087;-71
2022/06/25 02:21:38;;;;;;;1999.90;999.90;;;;;;;19.69;73.94;95218.56;5011742;28;20030;-70
2022/06/25 02:24:04;;;;;;;1999.90;999.90;;;;;;;19.71;73.65;95208.19;5011994;28;20018;-70
2022/06/25 02:26:29;;;;;;;1999.90;999.90;;;;;;;19.71;73.65;95210.13;5011858;28;20352;-70
2022/06/25 02:28:55;;;;;;;1999.90;999.90;;;;;;;19.73;73.73;95213.22;5011860;28;20474;-70
2022/06/25 02:31:20;;;;;;;1999.90;999.90;;;;;;;19.71;73.84;95208.19;5011435;28;20422;-70
2022/06/25 02:33:46;;;;;;;1999.90;999.90;;;;;;;19.69;73.93;95210.47;5011913;28;20088;-70
2022/06/25 02:36:11;;;;;;;1999.90;999.90;;;;;;;19.68;73.88;95205.44;5011773;28;20483;-70
2022/06/25 02:38:36;;;;;;;1999.90;999.90;;;;;;;19.63;73.82;95203.81;5011880;28;20022;-70
2022/06/25 02:41:02;;;;;;;1999.90;999.90;;;;;;;19.65;73.77;95209.63;5011264;28;20036;-70
2022/06/25 02:43:27;;;;;;;1999.90;999.90;;;;;;;19.64;74.13;95205.38;5011540;28;20084;-70
2022/06/25 02:45:52;;;;;;;1999.90;999.90;;;;;;;19.63;73.64;95209.22;5011597;28;20080;-71
2022/06/25 02:48:18;;;;;;;1999.90;999.90;;;;;;;19.59;73.77;95194.88;5010259;28;20378;-70
2022/06/25 02:50:43;;;;;;;1999.90;999.90;;;;;;;19.78;74.07;95225.66;5010879;28;20359;-70
2022/06/25 02:53:09;;;;;;;1999.90;999.90;;;;;;;19.65;74.13;95209.63;5011508;28;20032;-70
2022/06/25 03:01:02;;;;;;;1999.90;999.90;;;;;;;19.62;73.93;95207.66;5010532;28;20068;-70
2022/06/25 03:03:28;;;;;;;1999.90;999.90;;;;;;;19.67;73.79;95209.28;5011265;28;20045;-69
2022/06/25 03:05:53;;;;;;;1999.90;999.90;;;;;;;19.68;73.64;95200.03;5011135;28;20033;-71
2022/06/25 03:08:18;;;;;;;1999.90;999.90;;;;;;;19.68;73.53;95208.91;5011625;28;20111;-69
2022/06/25 03:10:44;;;;;;;1999.90;999.90;;;;;;;19.73;73.66;95224.81;5009641;28;20014;-69
2022/06/25 03:13:10;;;;;;;1999.90;999.90;;;;;;;19.60;73.21;95220.72;5011102;28;20053;-70
2022/06/25 03:15:36;;;;;;;1999.90;999.90;;;;;;;19.59;73.75;95212.94;5009815;28;20022;-70
2022/06/25 03:18:01;;;;;;;1999.90;999.90;;;;;;;19.62;74.28;95218.44;5011115;28;20487;-70
2022/06/25 03:20:26;;;;;;;1999.90;999.90;;;;;;;19.63;73.66;95217.31;5010556;28;20033;-69
2022/06/25 03:22:52;;;;;;;1999.90;999.90;;;;;;;19.73;73.83;95234.81;5010742;28;20118;-70
2022/06/25 03:25:17;;;;;;;1999.90;999.90;;;;;;;19.65;73.75;95222.31;5010920;28;20068;-69
2022/06/25 03:27:42;;;;;;;1999.90;999.90;;;;;;;19.82;73.91;95253.47;5010760;28;20038;-69
2022/06/25 03:30:08;;;;;;;1999.90;999.90;;;;;;;19.61;74.10;95226.91;5009164;28;20038;-69
2022/06/25 03:32:33;;;;;;;1999.90;999.90;;;;;;;19.58;74.29;95222.97;5010498;28;20025;-69
2022/06/25 03:34:59;;;;;;;1999.90;999.90;;;;;;;19.63;74.15;95233.50;5010891;28;20026;-70
2022/06/25 03:37:24;;;;;;;1999.90;999.90;;;;;;;19.64;74.01;95232.34;5010651;28;20431;-69
2022/06/25 03:39:49;;;;;;;1999.90;999.90;;;;;;;19.70;74.05;95241.69;5010638;28;20049;-70
2022/06/25 03:42:15;;;;;;;1999.90;999.90;;;;;;;19.88;74.13;95252.03;5010156;28;20028;-70
2022/06/25 03:44:40;;;;;;;1999.90;999.90;;;;;;;19.76;73.84;95244.09;5010584;28;20769;-70
2022/06/25 03:47:05;;;;;;;1999.90;999.90;;;;;;;19.67;73.65;95228.16;5010631;28;20076;-69
2022/06/25 03:49:31;;;;;;;1999.90;999.90;;;;;;;19.73;73.67;95234.81;5010486;28;20133;-70
2022/06/25 03:51:56;;;;;;;1999.90;999.90;;;;;;;19.70;73.95;95235.53;5008532;28;20128;-69
2022/06/25 03:54:22;;;;;;;1999.90;999.90;;;;;;;19.74;73.67;95247.94;5010345;28;20030;-70
2022/06/25 03:56:47;;;;;;;1999.90;999.90;;;;;;;19.71;73.65;95251.38;5010303;28;20026;-70
2022/06/25 03:59:13;;;;;;;1999.90;999.90;;;;;;;19.64;73.69;95240.44;5010244;28;20022;-69
2022/06/25 04:01:38;;;;;;;1999.90;999.90;;;;;;;19.67;73.73;95247.84;5009962;28;20050;-69
2022/06/25 04:04:04;;;;;;;1999.90;999.90;;;;;;;19.62;73.74;95237.34;5010075;28;20022;-70
2022/06/25 04:06:29;;;;;;;1999.90;999.90;;;;;;;19.63;73.80;95246.22;5010110;28;20438;-69
2022/06/25 04:08:54;;;;;;;1999.90;999.90;;;;;;;19.71;73.88;95242.50;5009957;28;20470;-69
2022/06/25 04:11:20;;;;;;;1999.90;999.90;;;;;;;19.73;73.88;95240.22;5009733;28;20084;-70
2022/06/25 04:13:45;;;;;;;1999.90;999.90;;;;;;;19.76;73.78;95244.09;5010087;28;20029;-70
2022/06/25 04:16:10;;;;;;;1999.90;999.90;;;;;;;19.82;73.90;95250.78;5010347;28;20025;-70
2022/06/25 04:18:36;;;;;;;1999.90;999.90;;;;;;;19.92;73.87;95252.88;5009917;28;20030;-69
2022/06/25 04:21:01;;;;;;;1999.90;999.90;;;;;;;19.97;73.46;95261.44;5009547;28;20056;-69
2022/06/25 04:23:27;;;;;;;1999.90;999.90;;;;;;;19.93;73.70;95255.22;5009697;28;20041;-69
2022/06/25 04:25:52;;;;;;;1999.90;999.90;;;;;;;20.02;73.80;95260.38;5009674;28;20030;-69
2022/06/25 04:31:01;;;;;;;1999.90;999.90;;;;;;;20.24;73.67;95289.28;5009418;28;20568;-70
2022/06/25 04:33:27;;;;;;;1999.90;999.90;;;;;;;20.25;73.25;95271.91;5009964;28;20026;-69
2022/06/25 04:35:52;;;;;;;1999.90;999.90;;;;;;;20.34;73.18;95266.28;5009895;28;20025;-70
2022/06/25 04:38:18;;;;;;;1999.90;999.90;;;;;;;20.44;72.84;95268.34;5009866;28;20022;-70
2022/06/25 04:40:43;;;;;;;1999.90;999.90;;;;;;;20.59;72.83;95260.47;5009115;28;20033;-70
2022/06/25 04:43:08;;;;;;;1999.90;999.90;;;;;;;20.72;72.53;95262.59;5009742;28;20061;-70
2022/06/25 04:45:34;;;;;;;1999.90;999.90;;;;;;;20.96;72.42;95276.81;5009770;28;20110;-69
2022/06/25 04:48:00;;;;;;;1999.90;999.90;;;;;;;21.10;71.93;95270.81;5009797;28;20497;-69
2022/06/25 04:50:26;;;;;;;1999.90;999.90;;;;;;;21.21;71.25;95288.72;5009205;28;20026;-70
2022/06/25 04:52:51;;;;;;;1999.90;999.90;;;;;;;21.26;71.25;95268.69;5009219;28;20022;-70
2022/06/25 04:55:17;;;;;;;1999.90;999.90;;;;;;;21.41;71.52;95275.06;5009838;28;20037;-69
2022/06/25 04:57:42;;;;;;;1999.90;999.90;;;;;;;20.87;67.86;95279.78;5009906;28;20037;-69
2022/06/25 05:00:11;;;;;;;1999.90;999.90;;;;;;;21.00;69.82;95291.16;5009600;28;20026;-69
2022/06/25 05:02:36;;;;;;;1999.90;999.90;;;;;;;21.29;70.70;95295.78;5009266;28;20030;-68
2022/06/25 05:05:02;;;;;;;1999.90;999.90;;;;;;;21.54;71.14;95303.41;5009489;28;20534;-69
2022/06/25 05:07:27;;;;;;;1999.90;999.90;;;;;;;21.17;69.39;95298.72;5009458;28;20478;-70
2022/06/25 05:09:52;;;;;;;1999.90;999.90;;;;;;;21.52;69.94;95303.78;5008066;28;20122;-69
2022/06/25 05:15:02;;;;;;;1999.90;999.90;;;;;;;21.36;68.66;95288.94;5009541;28;20448;-70
2022/06/25 05:17:28;;;;;;;1999.90;999.90;;;;;;;21.41;68.97;95285.88;5009462;28;20109;-70
2022/06/25 05:19:55;;;;;;;1999.90;999.90;;;;;;;21.75;69.89;95292.03;5009127;28;20022;-69
2022/06/25 05:22:21;;;;;;;1999.90;999.90;;;;;;;21.41;67.54;95319.13;5009293;28;20026;-69
2022/06/25 05:24:46;;;;;;;1999.90;999.90;;;;;;;21.56;68.84;95314.66;5009180;28;20025;-69
2022/06/25 05:27:11;;;;;;;1999.90;999.90;;;;;;;21.82;69.68;95297.53;5009397;28;20483;-69
2022/06/25 05:29:37;;;;;;;1999.90;999.90;;;;;;;22.15;69.94;95310.25;5009262;28;20461;-69
2022/06/25 05:32:02;;;;;;;1999.90;999.90;;;;;;;21.65;66.22;95296.22;5008748;28;20058;-69
2022/06/25 05:34:28;;;;;;;1999.90;999.90;;;;;;;21.70;67.91;95304.00;5010140;28;20576;-69
2022/06/25 05:36:53;;;;;;;1999.90;999.90;;;;;;;21.33;68.76;95297.75;5012626;28;20383;-69
2022/06/25 05:39:18;;;;;;;1999.90;999.90;;;;;;;21.73;69.82;95303.25;5012894;28;20033;-69
2022/06/25 05:41:44;;;;;;;1999.90;999.90;;;;;;;21.40;66.24;95314.88;5010966;28;20034;-68
2022/06/25 05:44:09;;;;;;;1999.90;999.90;;;;;;;20.84;66.06;95295.97;5012863;28;20084;-69
2022/06/25 05:46:35;;;;;;;1999.90;999.90;;;;;;;20.98;69.19;95286.09;5012704;28;20406;-68
2022/06/25 05:49:00;;;;;;;1999.90;999.90;;;;;;;21.35;68.91;95295.50;5012699;28;20538;-68
2022/06/25 05:51:25;;;;;;;1999.90;999.90;;;;;;;20.71;66.67;95301.56;5012011;28;20037;-69
2022/06/25 05:53:51;;;;;;;1999.90;999.90;;;;;;;21.18;68.74;95299.50;5012518;28;20101;-69
2022/06/25 05:56:16;;;;;;;1999.90;999.90;;;;;;;21.45;66.50;95301.03;5012342;28;20463;-68
2022/06/25 05:58:41;;;;;;;1999.90;999.90;;;;;;;21.85;68.44;95301.41;5012282;28;20029;-69
2022/06/25 06:01:07;;;;;;;1999.90;999.90;;;;;;;22.10;68.50;95293.53;5011898;28;20063;-69
2022/06/25 06:03:32;;;;;;;1999.90;999.90;;;;;;;22.38;68.49;95306.56;5012276;28;20453;-69
2022/06/25 06:05:58;;;;;;;1999.90;999.90;;;;;;;22.71;67.44;95324.63;5012460;28;20018;-69
2022/06/25 06:08:23;;;;;;;1999.90;999.90;;;;;;;22.37;64.42;95302.28;5012325;28;20026;-70
2022/06/25 06:10:48;;;;;;;1999.90;999.90;;;;;;;21.76;60.95;95328.81;5011593;28;20030;-69
2022/06/25 06:13:14;;;;;;;1999.90;999.90;;;;;;;21.90;64.96;95326.22;5012128;28;20045;-69
2022/06/25 06:15:39;;;;;;;1999.90;999.90;;;;;;;22.27;66.97;95317.31;5012267;28;20022;-69
2022/06/25 06:18:05;;;;;;;1999.90;999.90;;;;;;;22.25;64.15;95347.50;5012026;28;20025;-69
2022/06/25 06:20:30;;;;;;;1999.90;999.90;;;;;;;22.14;62.36;95333.06;5011504;28;20510;-69
2022/06/25 06:22:56;;;;;;;1999.90;999.90;;;;;;;21.68;64.41;95305.50;5011774;28;20390;-70
2022/06/25 06:25:21;;;;;;;1999.90;999.90;;;;;;;22.17;64.71;95340.47;5012008;28;20056;-70
2022/06/25 06:27:47;;;;;;;1999.90;999.90;;;;;;;22.34;64.87;95332.84;5012118;28;20079;-70
2022/06/25 06:30:13;;;;;;;1999.90;999.90;;;;;;;23.16;66.21;95342.34;5011769;28;20036;-70
2022/06/25 06:32:38;;;;;;;1999.90;999.90;;;;;;;23.46;65.49;95327.75;5011502;28;20037;-69
2022/06/25 06:35:05;;;;;;;1999.90;999.90;;;;;;;24.06;65.26;95346.22;5011566;28;20034;-69
2022/06/25 06:37:31;;;;;;;1999.90;999.90;;;;;;;24.26;65.34;95324.84;5011673;28;20382;-70
2022/06/25 06:39:56;;;;;;;1999.90;999.90;;;;;;;24.60;64.69;95328.00;5011211;28;20022;-69
2022/06/25 06:42:21;;;;;;;1999.90;999.90;;;;;;;24.85;62.38;95360.63;5011775;28;20057;-69
2022/06/25 06:44:47;;;;;;;1999.90;999.90;;;;;;;23.94;58.27;95349.28;5011424;28;20030;-69
2022/06/25 06:47:12;;;;;;;1999.90;999.90;;;;;;;24.50;63.15;95354.03;5011314;28;20126;-70
2022/06/25 06:49:38;;;;;;;1999.90;999.90;;;;;;;24.47;60.93;95343.19;5011676;28;20029;-69
2022/06/25 06:52:04;;;;;;;1999.90;999.90;;;;;;;24.13;58.88;95373.38;5010913;28;20037;-69
2022/06/25 06:54:29;;;;;;;1999.90;999.90;;;;;;;23.10;56.37;95368.31;5011221;28;20100;-69
2022/06/25 06:56:55;;;;;;;1999.90;999.90;;;;;;;23.23;58.27;95339.66;5011192;28;20113;-69
2022/06/25 06:59:21;;;;;;;1999.90;999.90;;;;;;;22.06;56.26;95345.75;5011257;28;20466;-70
2022/06/25 07:01:47;;;;;;;1999.90;999.90;;;;;;;22.03;60.46;95343.78;5010681;28;20156;-69
2022/06/25 07:04:12;;;;;;;1999.90;999.90;;;;;;;22.44;61.66;95334.88;5011333;28;20684;-69
2022/06/25 07:06:37;;;;;;;1999.90;999.90;;;;;;;21.29;61.06;95324.75;5010961;28;20120;-69
2022/06/25 07:09:03;;;;;;;1999.90;999.90;;;;;;;21.72;62.53;95366.66;5011203;28;20529;-69
2022/06/25 07:11:29;;;;;;;1999.90;999.90;;;;;;;22.76;62.13;95335.88;5010685;28;20537;-69
2022/06/25 07:13:59;;;;;;;1999.90;999.90;;;;;;;22.63;55.80;95375.31;5009833;28;20022;-70
2022/06/25 07:16:25;;;;;;;1999.90;999.90;;;;;;;22.89;56.71;95362.75;5010860;28;20471;-68
2022/06/25 07:18:51;;;;;;;1999.90;999.90;;;;;;;23.79;60.16;95362.81;5011023;28;20032;-69
2022/06/25 07:21:17;;;;;;;1999.90;999.90;;;;;;;22.92;55.44;95338.34;5010440;28;20105;-70
2022/06/25 07:23:42;;;;;;;1999.90;999.90;;;;;;;22.78;55.53;95343.66;5010755;28;20382;-69
2022/06/25 07:26:08;;;;;;;1999.90;999.90;;;;;;;23.22;58.92;95329.97;5010922;28;20030;-69
2022/06/25 07:28:34;;;;;;;1999.90;999.90;;;;;;;23.12;58.07;95330.69;5010641;28;20062;-69
2022/06/25 07:30:59;;;;;;;1999.90;999.90;;;;;;;22.78;54.93;95359.94;5010347;28;20493;-69
2022/06/25 07:33:25;;;;;;;1999.90;999.90;;;;;;;22.14;56.48;95353.97;5010715;28;20113;-68
2022/06/25 07:35:50;;;;;;;1999.90;999.90;;;;;;;20.99;58.88;95324.75;5009375;28;20046;-68
2022/06/25 07:38:15;;;;;;;1999.90;999.90;;;;;;;21.41;58.68;95354.31;5010363;28;20156;-68
2022/06/25 07:40:42;;;;;;;1999.90;999.90;;;;;;;20.73;58.85;95330.97;5009990;28;20049;-68
2022/06/25 07:43:07;;;;;;;1999.90;999.90;;;;;;;21.26;58.35;95322.78;5010334;28;20125;-68
2022/06/25 07:45:33;;;;;;;1999.90;999.90;;;;;;;20.82;58.63;95330.69;5010282;28;20026;-68
2022/06/25 07:47:58;;;;;;;1999.90;999.90;;;;;;;20.60;59.63;95330.38;5010582;28;20360;-68
2022/06/25 07:53:08;;;;;;;1999.90;999.90;;;;;;;21.35;58.65;95341.47;5010352;28;20087;-68
2022/06/25 07:55:33;;;;;;;1999.90;999.90;;;;;;;20.81;58.53;95331.84;5010183;28;20057;-68
2022/06/25 07:57:59;;;;;;;1999.90;999.90;;;;;;;21.12;58.42;95309.06;5009759;28;20053;-68
2022/06/25 08:00:24;;;;;;;1999.90;999.90;;;;;;;21.42;56.05;95328.03;5009835;28;20034;-68
2022/06/25 08:02:49;;;;;;;1999.90;999.90;;;;;;;21.90;56.72;95323.50;5010194;28;20022;-67
2022/06/25 08:05:15;;;;;;;1999.90;999.90;;;;;;;21.82;55.15;95337.38;5010165;28;20053;-68
2022/06/25 08:07:40;;;;;;;1999.90;999.90;;;;;;;21.13;54.24;95340.38;5010255;28;20041;-67
2022/06/25 08:10:06;;;;;;;1999.90;999.90;;;;;;;21.33;54.66;95317.47;5009968;28;20036;-67
2022/06/25 08:12:32;;;;;;;1999.90;999.90;;;;;;;21.25;53.75;95323.94;5009833;28;20053;-68
2022/06/25 08:14:58;;;;;;;1999.90;999.90;;;;;;;21.57;54.78;95315.44;5009704;28;20101;-68
2022/06/25 08:17:24;;;;;;;1999.90;999.90;;;;;;;22.02;56.95;95319.78;5010125;28;20088;-67
2022/06/25 08:19:49;;;;;;;1999.90;999.90;;;;;;;21.66;53.97;95326.75;5010388;28;20066;-67
2022/06/25 08:22:14;;;;;;;1999.90;999.90;;;;;;;22.24;55.03;95324.25;5009375;28;20032;-67
2022/06/25 08:24:40;;;;;;;1999.90;999.90;;;;;;;23.31;56.81;95335.06;5009718;28;20053;-68
2022/06/25 08:27:05;;;;;;;1999.90;999.90;;;;;;;22.80;51.90;95333.97;5009816;28;20026;-68
2022/06/25 08:29:30;;;;;;;1999.90;999.90;;;;;;;22.91;51.17;95327.88;5009973;28;20037;-68
2022/06/25 08:31:56;;;;;;;1999.90;999.90;;;;;;;23.05;51.83;95325.25;5009145;28;20506;-68
2022/06/25 08:34:21;;;;;;;1999.90;999.90;;;;;;;22.82;50.93;95322.75;5009905;28;20030;-67
2022/06/25 08:36:46;;;;;;;1999.90;999.90;;;;;;;23.09;52.50;95339.63;5009549;28;20037;-68
2022/06/25 08:39:12;;;;;;;1999.90;999.90;;;;;;;22.30;52.03;95309.22;5009898;28;20666;-68
2022/06/25 08:41:38;;;;;;;1999.90;999.90;;;;;;;23.35;56.03;95317.66;5008612;28;20485;-67
2022/06/25 08:44:03;;;;;;;1999.90;999.90;;;;;;;22.75;51.46;95309.94;5008404;28;20030;-67
2022/06/25 08:46:29;;;;;;;1999.90;999.90;;;;;;;22.84;49.55;95318.50;5009592;28;20555;-68
2022/06/25 08:48:56;;;;;;;1999.90;999.90;;;;;;;23.84;52.48;95324.41;5009458;28;20026;-69
2022/06/25 08:51:28;;;;;;;1999.90;999.90;;;;;;;24.51;52.42;95322.19;5009097;28;20018;-68
2022/06/25 08:53:54;;;;;;;1999.90;999.90;;;;;;;25.39;54.24;95317.78;5009646;28;20072;-68
2022/06/25 08:56:20;;;;;;;1999.90;999.90;;;;;;;25.90;55.15;95286.41;5009397;28;20442;-68
2022/06/25 08:58:45;;;;;;;1999.90;999.90;;;;;;;26.55;53.95;95297.63;5009375;28;20030;-68
2022/06/25 09:01:11;;;;;;;1999.90;999.90;;;;;;;27.00;53.65;95298.34;5009157;28;20346;-68
2022/06/25 09:03:39;;;;;;;1999.90;999.90;;;;;;;25.12;43.64;95307.34;5009681;28;20060;-68
2022/06/25 09:06:11;;;;;;;1999.90;999.90;;;;;;;25.56;49.17;95307.97;5009118;28;20026;-68
2022/06/25 09:08:37;;;;;;;1999.90;999.90;;;;;;;25.12;45.15;95309.28;5009190;28;20133;-69
2022/06/25 09:11:02;;;;;;;1999.90;999.90;;;;;;;25.69;43.95;95281.81;5012422;28;20084;-68
2022/06/25 09:13:27;;;;;;;1999.90;999.90;;;;;;;25.76;46.64;95283.78;5013249;28;20116;-69
2022/06/25 09:15:53;;;;;;;1999.90;999.90;;;;;;;25.58;45.55;95286.53;5013356;28;20494;-70
2022/06/25 09:18:19;;;;;;;1999.90;999.90;;;;;;;23.77;47.91;95305.38;5011896;28;20030;-68
2022/06/25 09:20:56;;;;;;;1999.90;999.90;;;;;;;23.23;47.89;95309.03;5012751;28;20045;-68
2022/06/25 09:23:21;;;;;;;1999.90;999.90;;;;;;;24.45;47.92;95288.41;5013097;28;20029;-68
2022/06/25 09:26:00;;;;;;;1999.90;999.90;;;;;;;24.51;48.37;95308.59;5013081;28;20030;-68
2022/06/25 09:28:31;;;;;;;1999.90;999.90;;;;;;;25.17;47.41;95302.66;5013006;28;20041;-68
2022/06/25 09:30:56;;;;;;;1999.90;999.90;;;;;;;26.16;51.80;95283.09;5012481;28;20109;-68
2022/06/25 09:33:21;;;;;;;1999.90;999.90;;;;;;;25.23;45.31;95304.56;5012857;28;20152;-68
2022/06/25 09:35:50;;;;;;;1999.90;999.90;;;;;;;24.80;44.77;95307.38;5011443;28;20022;-68
2022/06/25 09:38:16;;;;;;;1999.90;999.90;;;;;;;25.74;42.78;95275.94;5012719;28;20030;-68
2022/06/25 09:40:54;;;;;;;1999.90;999.90;;;;;;;25.34;41.56;95296.41;5012163;28;20390;-68
2022/06/25 09:43:22;;;;;;;1999.90;999.90;;;;;;;23.46;43.76;95238.97;5012765;28;20471;-68
2022/06/25 09:45:51;;;;;;;1999.90;999.90;;;;;;;24.37;46.38;95314.81;5012477;28;20638;-68
2022/06/25 09:48:21;;;;;;;1999.90;999.90;;;;;;;24.58;45.96;95279.44;5012935;28;20097;-68
2022/06/25 09:51:04;;;;;;;1999.90;999.90;;;;;;;25.53;43.33;95295.91;5010399;28;20497;-68
2022/06/25 09:53:30;;;;;;;1999.90;999.90;;;;;;;26.00;44.05;95287.50;5012436;28;20556;-69
2022/06/25 09:55:56;;;;;;;1999.90;999.90;;;;;;;25.58;42.58;95292.00;5011050;28;20022;-69
2022/06/25 09:58:22;;;;;;;1999.90;999.90;;;;;;;26.36;43.35;95293.44;5012298;28;20030;-69
2022/06/25 10:00:48;;;;;;;1999.90;999.90;;;;;;;25.71;40.73;95300.50;5011683;28;20100;-68
2022/06/25 10:03:14;;;;;;;1999.90;999.90;;;;;;;25.35;40.97;95281.59;5012197;28;20030;-68
2022/06/25 10:05:40;;;;;;;1999.90;999.90;;;;;;;24.74;43.49;95273.59;5012002;28;20065;-68
2022/06/25 10:08:11;;;;;;;1999.90;999.90;;;;;;;25.92;45.83;95287.56;5011971;28;20497;-69
2022/06/25 10:10:44;;;;;;;1999.90;999.90;;;;;;;26.22;45.32;95261.63;5011256;28;20088;-68
2022/06/25 10:13:10;;;;;;;1999.90;999.90;;;;;;;26.42;39.66;95273.59;5010841;28;20036;-68
2022/06/25 10:15:36;;;;;;;1999.90;999.90;;;;;;;26.51;39.46;95264.13;5012033;28;20026;-68
2022/06/25 10:18:07;;;;;;;1999.90;999.90;;;;;;;26.30;39.38;95275.97;5012231;28;20140;-68
2022/06/25 10:20:33;;;;;;;1999.90;999.90;;;;;;;25.13;42.36;95280.91;5011271;28;20021;-68
2022/06/25 10:23:01;;;;;;;1999.90;999.90;;;;;;;24.69;41.00;95278.66;5012009;28;20044;-68
2022/06/25 10:25:28;;;;;;;1999.90;999.90;;;;;;;25.82;46.15;95263.88;5011895;28;20030;-68
2022/06/25 10:28:16;;;;;;;1999.90;999.90;;;;;;;25.67;40.41;95273.28;5011979;28;20850;-68
2022/06/25 10:30:46;;;;;;;1999.90;999.90;;;;;;;25.44;40.36;95262.09;5011253;28;20018;-68
2022/06/25 10:33:13;;;;;;;1999.90;999.90;;;;;;;26.00;38.68;95262.97;5011575;28;20121;-68
2022/06/25 10:35:40;;;;;;;1999.90;999.90;;;;;;;24.86;40.24;95256.84;5011982;28;20029;-68
2022/06/25 10:38:11;;;;;;;1999.90;999.90;;;;;;;24.65;40.47;95237.88;5011897;28;20109;-68
2022/06/25 10:40:56;;;;;;;1999.90;999.90;;;;;;;25.54;37.95;95223.13;5011108;28;20080;-68
2022/06/25 10:43:34;;;;;;;1999.90;999.90;;;;;;;24.87;38.81;95254.91;5011610;28;20022;-68
2022/06/25 10:45:59;;;;;;;1999.90;999.90;;;;;;;24.81;39.89;95227.31;5011608;28;20037;-68
2022/06/25 10:48:26;;;;;;;1999.90;999.90;;;;;;;25.25;40.03;95219.81;5011544;28;20079;-69
2022/06/25 10:50:53;;;;;;;1999.90;999.90;;;;;;;25.26;38.57;95243.91;5010993;28;20030;-68
2022/06/25 10:53:21;;;;;;;1999.90;999.90;;;;;;;25.59;38.72;95239.88;5011636;28;20022;-68
2022/06/25 10:55:46;;;;;;;1999.90;999.90;;;;;;;27.10;36.86;95251.09;5011277;28;20037;-69
2022/06/25 10:58:22;;;;;;;1999.90;999.90;;;;;;;26.07;36.29;95250.06;5011223;28;20399;-69
2022/06/25 11:00:54;;;;;;;1999.90;999.90;;;;;;;26.58;35.09;95248.50;5009124;28;20097;-69
2022/06/25 11:03:30;;;;;;;1999.90;999.90;;;;;;;27.78;33.44;95250.22;5011161;28;20076;-68
2022/06/25 11:05:57;;;;;;;1999.90;999.90;;;;;;;28.12;33.49;95194.66;5011237;28;20029;-69
2022/06/25 11:08:32;;;;;;;1999.90;999.90;;;;;;;29.18;33.10;95235.00;5011596;28;20026;-69
2022/06/25 11:10:58;;;;;;;1999.90;999.90;;;;;;;29.38;31.86;95191.91;5010428;28;20050;-68
2022/06/25 11:13:24;;;;;;;1999.90;999.90;;;;;;;29.17;32.94;95186.88;5010965;28;20125;-68